createdAt,value
2023-03-07T00:05:03.579Z,15.93
2023-03-07T00:20:24.940Z,15.07
2023-03-07T00:35:46.278Z,20.80
2023-03-07T00:51:08.539Z,15.00
2023-03-07T01:06:30.653Z,13.60
2023-03-07T01:21:51.753Z,14.20
2023-03-07T01:37:12.782Z,13.73
2023-03-07T01:52:36.445Z,11.20
2023-03-07T02:07:57.929Z,10.73
2023-03-07T02:23:34.584Z,13.47
2023-03-07T02:38:56.169Z,14.93
2023-03-07T02:54:17.892Z,14.67
2023-03-07T03:09:39.001Z,15.17
2023-03-07T03:25:00.434Z,18.40
2023-03-07T03:40:21.627Z,16.67
2023-03-07T03:55:43.056Z,17.90
2023-03-07T04:11:05.162Z,13.10
2023-03-07T04:26:26.352Z,16.07
2023-03-07T04:41:47.768Z,15.97
2023-03-07T04:57:09.167Z,19.40
2023-03-07T05:12:30.518Z,20.27
2023-03-07T05:27:51.781Z,42.57
2023-03-07T05:43:13.256Z,51.17
2023-03-07T05:58:34.432Z,36.73
2023-03-07T06:13:56.159Z,56.40
2023-03-07T06:29:17.241Z,49.60
2023-03-07T06:44:39.015Z,56.80
2023-03-07T07:00:00.069Z,43.80
2023-03-07T07:15:21.175Z,87.30
2023-03-07T07:30:42.507Z,61.27
2023-03-07T07:46:05.312Z,63.40
2023-03-07T08:01:26.219Z,24.47
2023-03-07T08:16:47.496Z,84.73
2023-03-07T08:32:10.465Z,37.47
2023-03-07T08:47:33.371Z,34.30
2023-03-07T09:02:54.758Z,50.87
2023-03-07T09:18:15.889Z,55.37
2023-03-07T09:33:37.362Z,23.77
2023-03-07T09:49:01.678Z,19.93
2023-03-07T10:04:24.162Z,17.33
2023-03-07T10:19:55.615Z,14.73
2023-03-07T10:35:21.317Z,10.03
2023-03-07T10:50:44.529Z,17.57
2023-03-07T11:06:06.066Z,40.83
2023-03-07T11:21:34.324Z,25.43
2023-03-07T11:36:57.785Z,18.17
2023-03-07T11:52:31.119Z,15.33
2023-03-07T12:07:59.506Z,7.87
2023-03-07T12:23:25.486Z,15.93
2023-03-07T12:39:03.256Z,10.87
2023-03-07T12:54:31.047Z,7.20
2023-03-07T13:09:53.206Z,9.10
2023-03-07T13:25:25.322Z,13.83
2023-03-07T13:40:47.871Z,12.53
2023-03-07T13:56:12.765Z,13.37
2023-03-07T14:11:37.475Z,11.13
2023-03-07T14:26:59.411Z,10.40
2023-03-07T14:42:44.148Z,17.27
2023-03-07T14:58:05.568Z,12.17
2023-03-07T15:13:35.849Z,52.70
2023-03-07T15:29:01.254Z,37.03
2023-03-07T15:44:22.422Z,76.83
2023-03-07T15:59:48.361Z,30.70
2023-03-07T16:15:14.181Z,21.77
2023-03-07T16:30:35.284Z,18.33
2023-03-07T16:45:57.662Z,18.60
2023-03-07T17:01:19.345Z,20.67
2023-03-07T17:16:43.708Z,30.83
2023-03-07T17:32:06.224Z,30.63
2023-03-07T17:47:27.567Z,29.10
2023-03-07T18:02:49.096Z,22.13
2023-03-07T18:18:10.465Z,20.53
2023-03-07T18:33:32.299Z,15.70
2023-03-07T18:48:53.664Z,31.57
2023-03-07T19:04:14.771Z,18.03
2023-03-07T19:19:36.576Z,20.00
2023-03-07T19:34:58.300Z,18.90
2023-03-07T19:50:19.565Z,15.60
2023-03-07T20:05:41.518Z,14.93
2023-03-07T20:21:06.638Z,14.33
2023-03-07T20:36:29.082Z,13.93
2023-03-07T20:51:50.655Z,14.47
2023-03-07T21:07:11.842Z,14.70
2023-03-07T21:22:33.148Z,15.43
2023-03-07T21:37:54.746Z,15.13
2023-03-07T21:53:15.848Z,17.03
2023-03-07T22:08:37.494Z,15.40
2023-03-07T22:24:01.223Z,18.27
2023-03-07T22:39:22.428Z,14.20
2023-03-07T22:54:45.099Z,11.90
2023-03-07T23:10:06.895Z,12.23
2023-03-07T23:25:28.299Z,17.77
2023-03-07T23:40:49.524Z,21.13
2023-03-07T23:56:11.934Z,15.47
